バンギ の空港の天気 - METARとTAF

バンギ・ムポコ国際空港 ( FEFF / BGF ) - 中央アフリカ バンギ
飛行場実況気象(Metar)
観測時間09/25 02:00 WAT (09/25 01:00 UTC)
風向・風速静穏 0m/s
視程8000m
天気現象
全天の4割程度の雲 雲底高度 180m
気温22℃
湿度100%
気圧1011hPa
METARFEFF 250100Z 00000KT 8000 SCT006 22/22 Q1011 BECMG 0800 FG BKN004
過去の天気等 Google飛行場航空写真 Wunderground天気予報

過去48時間のMETAR

飛行場予報(TAF)
発表時間: 9/25 00:00 WAT (9/24 23:00 UTC)
予報対象時間: 25日1時 WAT ~ 26日7時 WAT
風向・風速静穏
視程10km以上
なし
25日4時 WAT ~ 25日7時 WAT に一時的に
視程800m
天気現象
全天の8割程度の雲 雲底高度 90m
25日8時 WAT ~ 25日10時 WAT に徐々に
全天の8割程度の雲 雲底高度 400m
25日11時 WAT ~ 25日13時 WAT に徐々に
風向・風速西 3m/s
全天の8割程度の雲 雲底高度 700m
少しの積乱雲 雲底高度 1010m
25日14時 WAT ~ 25日18時 WAT に 確率 30% で一時的に
風向・風速不定 8m/s
視程4000m
天気現象雷雨
TAF FEFF 242300Z 2500/2606 00000KT CAVOK
TEMPO 2503/2506 0800 FG BKN003
BECMG 2507/2509 BKN013
BECMG 2510/2512 26005KT BKN023 FEW033CB
PROB30 TEMPO 2513/2517 VRB15KT 4000 TSRA